Ridge Manor Estates, Florida
Current Conditions -  °F | °C
As of 1:15 PM on Sunday 25 Jan 2015 (Local Time) from KZPH Reporting Station
Clear Clear  
Wind Chill: 63°   Ceiling: Unl
Heat Index: 63°   Visibility: 10mi
Dew Point: 36°   Wind: 0mph
Humidity: 37%   Direction: NA
Pressure: 30.04"   Gusts: NA
Location:  28.5059°N, 82.0447°W
Report Text: KZPH 251815Z AUTO 00000KT 10SM CLR 17/02 A3004 RMK AO2
Loading
Personal Weather Stations






























Interactive Weather Map New forecast layout! Learn more

10-Day Weather Forecast

Advertisements
Track Severe Weather on mobile